Time;durP1;ratioP1;P1;durP2;ratioP2;P2;SDS_P1;SDS_P2;PMS_P1;PMS_P2;Temp;Humidity;BMP_temperature;BMP_pressure;BME280_temperature;BME280_humidity;BME280_pressure;Samples;Min_cycle;Max_cycle;Signal;HPM_P1;HPM_P2
2023/02/12 00:00:25;;;;;;;26.33;11.35;;;6.40;99.90;;;;;;4963969;28;20406;-69
2023/02/12 00:03:25;;;;;;;24.95;11.55;;;6.40;99.90;;;;;;4976425;28;20073;-69
2023/02/12 00:05:51;;;;;;;21.85;8.85;;;6.40;99.90;;;;;;4989140;28;20100;-69
2023/02/12 00:08:37;;;;;;;24.58;10.70;;;6.40;99.90;;;;;;4977409;28;20038;-69
2023/02/12 00:11:35;;;;;;;27.27;9.85;;;6.40;99.90;;;;;;4994860;28;20246;-69
2023/02/12 00:14:04;;;;;;;19.75;8.88;;;6.40;99.90;;;;;;4949711;29;20055;-69
2023/02/12 00:16:42;;;;;;;21.48;9.65;;;6.40;99.90;;;;;;4924676;29;20039;-69
2023/02/12 00:19:33;;;;;;;26.13;10.23;;;6.40;99.90;;;;;;4925953;29;20102;-69
2023/02/12 00:21:59;;;;;;;24.75;10.73;;;6.50;99.90;;;;;;4896374;29;20062;-68
2023/02/12 00:24:48;;;;;;;21.65;9.50;;;6.40;99.90;;;;;;4889542;29;20497;-69
2023/02/12 00:27:13;;;;;;;27.27;8.75;;;6.40;99.90;;;;;;4857114;29;20053;-69
2023/02/12 00:29:39;;;;;;;17.52;8.88;;;6.30;99.90;;;;;;4853878;29;20111;-69
2023/02/12 00:32:13;;;;;;;19.27;9.25;;;6.30;99.90;;;;;;4858062;29;20071;-69
2023/02/12 00:35:07;;;;;;;21.23;9.73;;;6.40;99.90;;;;;;4853341;29;20053;-69
2023/02/12 00:37:33;;;;;;;22.27;7.25;;;6.40;99.90;;;;;;4839048;29;20050;-69
2023/02/12 00:39:59;;;;;;;18.90;8.38;;;6.40;99.90;;;;;;4856326;29;20429;-69
2023/02/12 00:42:25;;;;;;;18.48;8.93;;;6.40;99.90;;;;;;4855681;29;20453;-69
2023/02/12 00:45:06;;;;;;;23.23;10.38;;;6.40;99.90;;;;;;4870486;29;20054;-69
2023/02/12 00:47:41;;;;;;;22.65;10.07;;;6.40;99.90;;;;;;4877656;29;20528;-69
2023/02/12 00:50:25;;;;;;;21.98;9.32;;;6.30;99.90;;;;;;4907309;29;20084;-69
2023/02/12 00:52:56;;;;;;;17.73;9.40;;;6.40;99.90;;;;;;4920987;29;20051;-69
2023/02/12 00:55:55;;;;;;;19.33;8.57;;;6.40;99.90;;;;;;4906604;29;20066;-69
2023/02/12 00:58:42;;;;;;;24.42;9.68;;;6.40;99.90;;;;;;4940872;28;20074;-70
2023/02/12 01:01:26;;;;;;;24.63;10.65;;;6.40;99.90;;;;;;4993804;28;20486;-70
2023/02/12 01:03:55;;;;;;;17.85;7.63;;;6.20;99.90;;;;;;4992331;28;20409;-69
2023/02/12 01:06:58;;;;;;;14.32;8.48;;;6.30;99.90;;;;;;4968641;28;20034;-67
2023/02/12 01:09:27;;;;;;;20.63;9.35;;;6.20;99.90;;;;;;4992703;28;20035;-67
2023/02/12 01:12:05;;;;;;;22.10;8.98;;;6.10;99.90;;;;;;4993655;28;20034;-67
2023/02/12 01:14:40;;;;;;;18.67;9.13;;;5.90;99.90;;;;;;4975833;28;20129;-68
2023/02/12 01:17:18;;;;;;;27.75;9.40;;;5.70;99.90;;;;;;4974969;28;20030;-67
2023/02/12 01:19:50;;;;;;;20.50;9.05;;;5.80;99.90;;;;;;4988435;28;20042;-67
2023/02/12 01:22:16;;;;;;;21.67;10.15;;;5.90;99.90;;;;;;4992239;28;20044;-67
2023/02/12 01:24:44;;;;;;;34.70;8.85;;;6.00;99.90;;;;;;4993076;28;20145;-67
2023/02/12 01:27:25;;;;;;;18.95;7.97;;;6.10;99.90;;;;;;4992182;28;20037;-68
2023/02/12 01:30:30;;;;;;;19.60;9.55;;;6.10;99.90;;;;;;4975674;28;20030;-67
2023/02/12 01:34:12;;;;;;;25.23;8.80;;;6.10;99.90;;;;;;4920715;29;20035;-67
2023/02/12 01:36:38;;;;;;;20.88;9.27;;;6.20;99.90;;;;;;4909484;28;20035;-70
2023/02/12 01:39:05;;;;;;;20.67;9.40;;;6.20;99.90;;;;;;4951442;29;20054;-70
2023/02/12 01:42:47;;;;;;;24.73;8.30;;;6.20;99.90;;;;;;4952232;29;20042;-70
2023/02/12 01:45:16;;;;;;;27.83;9.75;;;6.20;99.90;;;;;;4897283;29;20059;-67
2023/02/12 01:47:44;;;;;;;21.17;8.00;;;6.30;99.90;;;;;;4951506;29;20043;-67
2023/02/12 01:50:39;;;;;;;22.05;8.73;;;6.30;99.90;;;;;;4951629;29;20031;-67
2023/02/12 01:53:49;;;;;;;25.67;10.02;;;6.30;99.90;;;;;;4973462;28;20529;-67
2023/02/12 02:00:32;;;;;;;21.90;9.65;;;6.30;99.90;;;;;;4864994;29;20650;-67
2023/02/12 02:03:01;;;;;;;26.58;10.82;;;6.40;99.90;;;;;;4848161;29;20037;-67
2023/02/12 02:06:14;;;;;;;26.05;9.45;;;6.30;99.90;;;;;;4870346;29;20434;-67
2023/02/12 02:08:49;;;;;;;20.90;10.10;;;6.40;99.90;;;;;;4856780;29;20072;-67
2023/02/12 02:14:42;;;;;;;23.40;8.82;;;6.40;99.90;;;;;;4874790;29;20821;-67
2023/02/12 02:18:04;;;;;;;24.50;9.90;;;6.40;99.90;;;;;;4873300;29;20048;-70
2023/02/12 02:21:29;;;;;;;20.80;8.65;;;6.40;99.90;;;;;;4867748;29;20037;-70
2023/02/12 02:24:48;;;;;;;23.85;9.10;;;6.40;99.90;;;;;;4874130;29;20076;-69
2023/02/12 02:28:15;;;;;;;19.67;9.20;;;6.40;99.90;;;;;;4873877;29;20040;-70
2023/02/12 02:35:03;;;;;;;18.10;8.70;;;6.50;99.90;;;;;;4845524;29;20125;-69
2023/02/12 02:38:09;;;;;;;20.92;9.60;;;6.50;99.90;;;;;;4873725;29;20036;-70
2023/02/12 02:41:50;;;;;;;23.52;10.65;;;6.50;99.90;;;;;;4887978;29;20057;-70
2023/02/12 02:45:36;;;;;;;27.38;10.40;;;6.40;99.90;;;;;;4930805;29;20050;-70
2023/02/12 02:48:14;;;;;;;20.58;8.77;;;6.30;99.90;;;;;;4866506;29;20079;-69
2023/02/12 02:50:58;;;;;;;30.58;10.38;;;6.40;99.90;;;;;;4874736;29;20042;-70
2023/02/12 02:54:26;;;;;;;31.67;9.75;;;6.30;99.90;;;;;;4857592;29;20065;-67
2023/02/12 02:57:33;;;;;;;26.75;10.50;;;6.30;99.90;;;;;;4904698;29;20524;-67
2023/02/12 03:00:41;;;;;;;21.05;10.90;;;6.30;99.90;;;;;;4928024;29;20798;-67
2023/02/12 03:03:48;;;;;;;26.98;10.20;;;6.30;99.90;;;;;;4920856;29;20039;-68
2023/02/12 03:07:26;;;;;;;21.55;11.02;;;6.20;99.90;;;;;;4920850;29;20147;-68
2023/02/12 03:10:54;;;;;;;20.20;9.07;;;6.20;99.90;;;;;;4927555;29;20059;-68
2023/02/12 03:14:05;;;;;;;17.50;9.90;;;6.20;99.90;;;;;;4922083;29;20131;-68
2023/02/12 03:17:17;;;;;;;18.67;8.88;;;6.30;99.90;;;;;;4936250;29;20118;-68
2023/02/12 03:25:14;;;;;;;22.02;9.10;;;6.30;99.90;;;;;;4970539;28;20129;-68
2023/02/12 03:32:36;;;;;;;22.23;9.18;;;6.20;99.90;;;;;;4867783;29;20041;-68
2023/02/12 03:36:15;;;;;;;19.33;8.85;;;6.20;99.90;;;;;;4880572;29;20457;-69
2023/02/12 03:42:46;;;;;;;23.00;10.20;;;6.30;99.90;;;;;;4867227;29;20052;-69
2023/02/12 03:46:06;;;;;;;19.52;8.77;;;6.30;99.90;;;;;;4887921;29;20032;-69
2023/02/12 03:49:23;;;;;;;22.08;10.23;;;6.30;99.90;;;;;;4877517;29;20158;-68
2023/02/12 03:51:58;;;;;;;20.20;9.15;;;6.20;99.90;;;;;;4889188;29;20160;-69
2023/02/12 03:55:24;;;;;;;21.67;9.23;;;6.30;99.90;;;;;;4870561;29;20112;-68
2023/02/12 03:58:23;;;;;;;22.38;9.40;;;6.20;99.90;;;;;;4877289;29;20049;-68
2023/02/12 04:04:33;;;;;;;23.25;10.00;;;5.90;99.90;;;;;;4917070;29;20444;-69
2023/02/12 04:07:00;;;;;;;25.42;11.38;;;5.90;99.90;;;;;;4943488;28;20064;-69
2023/02/12 04:09:38;;;;;;;20.30;8.93;;;5.80;99.90;;;;;;4987485;28;20054;-69
2023/02/12 04:12:58;;;;;;;16.98;9.02;;;5.80;99.90;;;;;;4976454;28;20077;-68
2023/02/12 04:15:53;;;;;;;18.33;10.98;;;5.80;99.90;;;;;;4949891;29;20035;-69
2023/02/12 04:18:48;;;;;;;23.08;9.07;;;5.80;99.90;;;;;;4961230;28;20104;-68
2023/02/12 04:26:26;;;;;;;26.60;9.45;;;5.80;99.90;;;;;;4962606;28;20050;-68
2023/02/12 04:36:25;;;;;;;27.33;8.90;;;5.70;99.90;;;;;;4896106;29;20131;-68
2023/02/12 04:39:29;;;;;;;21.50;9.20;;;5.70;99.90;;;;;;4895419;29;20056;-68
2023/02/12 04:42:50;;;;;;;21.27;11.52;;;5.70;99.90;;;;;;4883634;29;20081;-68
2023/02/12 04:45:56;;;;;;;22.88;10.50;;;5.70;99.90;;;;;;4857595;29;20518;-68
2023/02/12 04:49:23;;;;;;;22.30;8.98;;;5.60;99.90;;;;;;4858787;29;20231;-67
2023/02/12 04:52:04;;;;;;;19.00;9.93;;;5.60;99.90;;;;;;4893425;29;20846;-68
2023/02/12 04:55:42;;;;;;;16.92;8.50;;;5.70;99.90;;;;;;4976710;23;20088;-70
2023/02/12 04:58:20;;;;;;;28.38;10.30;;;5.70;99.90;;;;;;4976569;28;20042;-71
2023/02/12 05:01:00;;;;;;;24.48;11.30;;;5.70;99.90;;;;;;4993698;28;20054;-71
2023/02/12 05:03:29;;;;;;;26.95;12.05;;;5.70;99.90;;;;;;4991087;28;20027;-71
2023/02/12 05:06:49;;;;;;;18.50;8.80;;;5.70;99.90;;;;;;4993703;28;20567;-71
2023/02/12 05:09:18;;;;;;;18.88;9.70;;;5.60;99.90;;;;;;4940601;29;20116;-71
2023/02/12 05:12:12;;;;;;;26.58;10.35;;;5.40;99.90;;;;;;4925180;29;20063;-71
2023/02/12 05:14:46;;;;;;;22.30;11.60;;;5.40;99.90;;;;;;4883494;29;20136;-71
2023/02/12 05:17:49;;;;;;;21.77;10.57;;;5.40;99.90;;;;;;4892019;29;20041;-71
2023/02/12 05:20:27;;;;;;;23.00;10.43;;;5.50;99.90;;;;;;4887588;29;20048;-71
2023/02/12 05:23:02;;;;;;;30.67;12.30;;;5.60;99.90;;;;;;4893480;29;20123;-71
2023/02/12 05:25:28;;;;;;;21.30;9.13;;;5.70;99.90;;;;;;4888320;29;20072;-71
2023/02/12 05:28:03;;;;;;;24.80;10.70;;;5.70;99.90;;;;;;4893438;29;20535;-71
2023/02/12 05:30:31;;;;;;;25.27;12.00;;;5.80;99.90;;;;;;4882223;29;20044;-71
2023/02/12 05:33:18;;;;;;;26.20;10.25;;;5.80;99.90;;;;;;4892980;29;20536;-71
2023/02/12 05:35:46;;;;;;;19.13;10.85;;;5.70;99.90;;;;;;4889722;29;20077;-71
2023/02/12 05:38:17;;;;;;;26.30;10.48;;;5.50;99.90;;;;;;4890911;29;20057;-71
2023/02/12 05:40:43;;;;;;;21.88;11.13;;;5.50;99.90;;;;;;4890277;29;20044;-71
2023/02/12 05:43:09;;;;;;;26.73;11.77;;;5.50;99.90;;;;;;4905457;29;20390;-71
2023/02/12 05:45:36;;;;;;;21.38;9.65;;;5.50;99.90;;;;;;4913348;29;20044;-72
2023/02/12 05:48:41;;;;;;;26.65;12.30;;;5.60;99.90;;;;;;4913524;29;20034;-72
2023/02/12 05:51:33;;;;;;;28.63;11.30;;;5.60;99.90;;;;;;4868120;29;20047;-72
2023/02/12 05:54:22;;;;;;;21.23;11.57;;;5.60;99.90;;;;;;4988894;28;20058;-72
2023/02/12 05:56:57;;;;;;;28.80;12.65;;;5.70;99.90;;;;;;4953854;28;20042;-72
2023/02/12 06:00:06;;;;;;;19.63;9.52;;;5.70;99.90;;;;;;4992786;28;20109;-72
2023/02/12 06:06:41;;;;;;;21.85;10.65;;;5.70;99.90;;;;;;4911810;29;20051;-72
2023/02/12 06:09:13;;;;;;;28.20;10.93;;;5.70;99.90;;;;;;4903126;29;20052;-72
2023/02/12 06:11:45;;;;;;;24.60;11.90;;;5.60;99.90;;;;;;4907116;29;20045;-72
2023/02/12 06:14:40;;;;;;;26.90;9.48;;;5.60;99.90;;;;;;4887900;29;20028;-71
2023/02/12 06:17:11;;;;;;;26.38;11.00;;;5.50;99.90;;;;;;4854491;29;20052;-72
2023/02/12 06:20:44;;;;;;;21.50;8.70;;;5.50;99.90;;;;;;4905318;29;20036;-72
2023/02/12 06:23:12;;;;;;;21.83;9.75;;;5.40;99.90;;;;;;4870674;29;20041;-72
2023/02/12 06:26:29;;;;;;;18.20;8.55;;;5.40;99.90;;;;;;4869723;29;20486;-70
2023/02/12 06:30:07;;;;;;;18.63;9.52;;;5.40;99.90;;;;;;4828239;29;20588;-70
2023/02/12 06:32:33;;;;;;;17.60;9.18;;;5.30;99.90;;;;;;4797325;29;20142;-70
2023/02/12 06:36:03;;;;;;;22.73;11.10;;;5.20;99.90;;;;;;4803820;29;20559;-72
2023/02/12 06:38:44;;;;;;;19.83;10.05;;;5.20;99.90;;;;;;4807484;29;20132;-71
2023/02/12 06:41:20;;;;;;;23.95;10.15;;;5.10;99.90;;;;;;4836425;29;20440;-71
2023/02/12 06:44:12;;;;;;;26.63;10.77;;;5.10;99.90;;;;;;4840153;29;20037;-71
2023/02/12 06:47:10;;;;;;;22.23;10.18;;;5.10;99.90;;;;;;4833568;29;20067;-71
2023/02/12 06:50:20;;;;;;;21.05;10.18;;;5.00;99.90;;;;;;4836565;29;20195;-71
2023/02/12 06:52:52;;;;;;;21.02;11.43;;;5.00;99.90;;;;;;4822240;29;20509;-71
2023/02/12 06:55:36;;;;;;;22.80;10.80;;;5.00;99.90;;;;;;4837513;29;20046;-71
2023/02/12 06:58:02;;;;;;;23.42;10.63;;;5.00;99.90;;;;;;4825566;29;20409;-71
2023/02/12 07:01:17;;;;;;;25.88;10.18;;;5.00;99.90;;;;;;4908733;29;20040;-71
2023/02/12 07:04:06;;;;;;;29.80;12.57;;;5.00;99.90;;;;;;4903464;29;20530;-71
2023/02/12 07:07:04;;;;;;;19.10;10.05;;;5.10;99.90;;;;;;4949152;28;20053;-71
2023/02/12 07:10:07;;;;;;;27.50;9.93;;;5.10;99.90;;;;;;4962631;28;20051;-72
2023/02/12 07:12:33;;;;;;;17.85;9.00;;;5.20;99.90;;;;;;4943997;29;20539;-71
2023/02/12 07:14:59;;;;;;;27.45;12.50;;;5.20;99.90;;;;;;4941625;29;20074;-71
2023/02/12 07:17:30;;;;;;;44.38;19.30;;;5.20;99.90;;;;;;4943271;29;20170;-71
2023/02/12 07:20:20;;;;;;;39.03;16.83;;;5.20;99.90;;;;;;4942241;29;20039;-71
2023/02/12 07:22:52;;;;;;;30.88;15.70;;;5.30;99.90;;;;;;4962304;28;20050;-72
2023/02/12 07:25:21;;;;;;;22.85;10.75;;;5.30;99.90;;;;;;4973437;28;20026;-72
2023/02/12 07:27:50;;;;;;;23.83;9.75;;;5.30;99.90;;;;;;4991083;28;20035;-72
2023/02/12 07:30:30;;;;;;;19.55;8.75;;;5.30;99.90;;;;;;4984091;28;20034;-72
2023/02/12 07:40:13;;;;;;;44.85;22.20;;;5.50;99.90;;;;;;4936996;29;20096;-71
2023/02/12 07:44:08;;;;;;;32.80;13.57;;;5.50;99.90;;;;;;4936309;29;20543;-71
2023/02/12 07:46:53;;;;;;;23.65;12.05;;;5.60;99.90;;;;;;4856370;29;20099;-71
2023/02/12 07:50:08;;;;;;;22.73;10.27;;;5.70;99.90;;;;;;4874048;29;20045;-71
2023/02/12 07:53:15;;;;;;;20.10;9.57;;;5.80;99.90;;;;;;4900558;29;20047;-72
2023/02/12 07:55:41;;;;;;;20.48;8.40;;;5.90;99.90;;;;;;4909208;29;20075;-72
2023/02/12 07:58:12;;;;;;;21.85;9.82;;;5.80;99.90;;;;;;4919179;29;20075;-72
2023/02/12 08:00:44;;;;;;;18.20;7.70;;;5.90;99.90;;;;;;4925454;29;20185;-72
2023/02/12 08:03:36;;;;;;;20.65;9.00;;;5.80;99.90;;;;;;4924642;29;20064;-72
2023/02/12 08:06:32;;;;;;;23.58;10.60;;;5.90;99.90;;;;;;4890508;29;20123;-72
2023/02/12 08:09:05;;;;;;;28.27;10.48;;;6.00;99.90;;;;;;4916704;29;20055;-72
2023/02/12 08:11:32;;;;;;;23.52;9.65;;;6.00;99.90;;;;;;4924974;29;20036;-72
2023/02/12 08:14:17;;;;;;;19.92;9.68;;;6.10;99.90;;;;;;4919408;29;20040;-72
2023/02/12 08:17:00;;;;;;;23.73;10.50;;;5.90;99.90;;;;;;4914270;29;20048;-72
2023/02/12 08:19:44;;;;;;;17.13;10.27;;;6.00;99.90;;;;;;4901909;29;20087;-72
2023/02/12 08:22:10;;;;;;;25.75;9.13;;;6.10;99.90;;;;;;4930076;29;20042;-71
2023/02/12 08:24:46;;;;;;;20.88;9.27;;;6.20;99.90;;;;;;4930063;29;20123;-72
2023/02/12 08:27:49;;;;;;;23.75;9.70;;;6.20;99.90;;;;;;4931361;29;20507;-71
2023/02/12 08:30:33;;;;;;;16.23;8.88;;;6.40;99.90;;;;;;4906637;29;20132;-71
2023/02/12 08:33:02;;;;;;;24.92;9.70;;;6.40;99.90;;;;;;4922351;29;20047;-72
2023/02/12 08:35:49;;;;;;;23.42;9.45;;;6.50;99.90;;;;;;4927057;29;20373;-70
2023/02/12 08:38:58;;;;;;;19.75;9.93;;;6.40;99.90;;;;;;4927026;29;20099;-72
2023/02/12 08:41:27;;;;;;;21.75;9.57;;;6.30;99.90;;;;;;4896086;29;20068;-71
2023/02/12 08:44:14;;;;;;;18.63;9.07;;;6.50;99.90;;;;;;4906453;29;20152;-71
2023/02/12 08:46:47;;;;;;;29.10;11.18;;;6.40;99.90;;;;;;4897455;29;20045;-71
2023/02/12 08:49:28;;;;;;;19.27;9.90;;;6.50;99.90;;;;;;4928076;29;20052;-71
2023/02/12 08:52:02;;;;;;;;;;;6.50;99.90;;;;;;4899071;29;20043;-71
2023/02/12 08:54:36;;;;;;;20.17;10.73;;;6.50;99.90;;;;;;4907198;29;19914;-71
2023/02/12 08:57:05;;;;;;;14.30;7.97;;;6.60;99.90;;;;;;4915412;29;20161;-71
2023/02/12 08:59:36;;;;;;;23.73;10.50;;;6.50;99.90;;;;;;4922744;29;20056;-71
2023/02/12 09:02:53;;;;;;;16.98;8.60;;;6.50;99.90;;;;;;4923654;29;20425;-71
2023/02/12 09:09:53;;;;;;;29.58;10.38;;;6.40;99.90;;;;;;4894618;29;20116;-72
2023/02/12 09:12:28;;;;;;;30.75;10.45;;;6.40;99.90;;;;;;4944418;29;20443;-72
2023/02/12 09:14:53;;;;;;;19.13;9.43;;;6.70;99.90;;;;;;4935636;29;20162;-71
2023/02/12 09:17:45;;;;;;;26.98;10.43;;;6.70;99.90;;;;;;4944374;29;20129;-72
2023/02/12 09:20:11;;;;;;;23.00;9.55;;;6.90;99.90;;;;;;4904715;29;20083;-72
2023/02/12 09:22:46;;;;;;;18.90;9.38;;;6.90;99.90;;;;;;4906336;29;20686;-72
2023/02/12 09:25:18;;;;;;;19.45;10.25;;;6.80;99.90;;;;;;4907930;29;20864;-72
2023/02/12 09:27:50;;;;;;;36.50;11.18;;;7.00;99.90;;;;;;4898377;29;20646;-72
2023/02/12 09:30:16;;;;;;;18.98;9.13;;;7.20;99.90;;;;;;4888462;29;20067;-71
2023/02/12 09:33:36;;;;;;;20.88;8.65;;;7.40;99.90;;;;;;4906022;29;20032;-71
2023/02/12 09:36:17;;;;;;;24.35;8.38;;;7.50;99.90;;;;;;4829071;29;20065;-72
2023/02/12 09:38:49;;;;;;;19.67;9.68;;;7.40;99.90;;;;;;4898461;29;20400;-72
2023/02/12 09:42:20;;;;;;;23.55;10.70;;;7.30;99.90;;;;;;4905598;29;20059;-71
2023/02/12 09:45:25;;;;;;;27.00;10.27;;;7.50;99.90;;;;;;4894276;29;20040;-72
2023/02/12 09:49:08;;;;;;;19.85;8.23;;;7.70;99.90;;;;;;4883807;29;20044;-72
2023/02/12 09:51:52;;;;;;;26.95;9.90;;;7.80;99.90;;;;;;4757699;30;20043;-71
2023/02/12 09:54:58;;;;;;;19.90;8.60;;;8.00;99.90;;;;;;4765677;30;20170;-71
2023/02/12 09:58:04;;;;;;;21.83;8.43;;;8.20;99.90;;;;;;4773202;29;20104;-70
2023/02/12 10:00:48;;;;;;;19.02;8.27;;;8.20;99.90;;;;;;4776005;29;20171;-71
2023/02/12 10:03:17;;;;;;;23.92;8.88;;;8.10;99.90;;;;;;4794923;29;20054;-71
2023/02/12 10:06:32;;;;;;;24.33;9.18;;;8.10;99.90;;;;;;4797266;29;20508;-71
2023/02/12 10:09:58;;;;;;;23.08;8.77;;;8.10;99.90;;;;;;4799640;29;20547;-71
2023/02/12 10:13:14;;;;;;;16.75;8.07;;;8.10;99.90;;;;;;4780623;30;20036;-71
2023/02/12 10:16:20;;;;;;;44.22;17.58;;;7.80;99.90;;;;;;4753072;30;20048;-71
2023/02/12 10:19:42;;;;;;;26.10;10.77;;;8.00;99.90;;;;;;4758160;30;20043;-71
2023/02/12 10:22:52;;;;;;;25.80;12.20;;;8.00;99.90;;;;;;4757727;30;20657;-71
2023/02/12 10:33:30;;;;;;;17.13;7.70;;;8.40;99.90;;;;;;4776429;30;20051;-71
2023/02/12 10:37:23;;;;;;;13.98;7.00;;;8.60;99.90;;;;;;4765828;30;20589;-71
2023/02/12 10:40:25;;;;;;;21.10;7.78;;;8.80;99.90;;;;;;4733391;30;20047;-71
2023/02/12 10:43:01;;;;;;;27.10;7.47;;;9.00;99.90;;;;;;4783846;29;20614;-71
2023/02/12 10:45:54;;;;;;;27.58;10.20;;;8.50;99.90;;;;;;4805272;29;20038;-71
2023/02/12 10:48:46;;;;;;;20.95;8.75;;;8.80;99.90;;;;;;4839521;29;20085;-71
2023/02/12 10:52:20;;;;;;;17.50;7.10;;;9.00;99.90;;;;;;4896715;29;20036;-71
2023/02/12 10:55:51;;;;;;;16.58;7.07;;;9.20;99.90;;;;;;4855930;29;20117;-71
2023/02/12 10:58:55;;;;;;;19.45;6.90;;;9.30;99.90;;;;;;4838182;29;20127;-71
2023/02/12 11:01:45;;;;;;;15.55;6.80;;;9.30;99.90;;;;;;4800697;29;20158;-71
2023/02/12 11:04:32;;;;;;;16.95;8.30;;;9.40;99.90;;;;;;4837827;29;20058;-71
2023/02/12 11:07:14;;;;;;;25.83;8.02;;;9.70;99.90;;;;;;4865973;29;20071;-72
2023/02/12 11:09:55;;;;;;;16.23;6.65;;;9.40;99.90;;;;;;4874026;29;20058;-72
2023/02/12 11:13:36;;;;;;;12.73;5.68;;;9.50;99.90;;;;;;4844158;29;20051;-72
2023/02/12 11:16:02;;;;;;;19.38;6.78;;;9.80;99.90;;;;;;4864672;29;20067;-72
2023/02/12 11:18:31;;;;;;;16.15;6.85;;;9.80;99.90;;;;;;4893591;29;20040;-72
2023/02/12 11:22:18;;;;;;;15.27;5.95;;;9.40;99.90;;;;;;4877725;29;20040;-72
2023/02/12 11:25:16;;;;;;;14.13;6.63;;;9.40;99.90;;;;;;4840503;29;20509;-72
2023/02/12 11:31:59;;;;;;;17.00;6.35;;;10.00;99.90;;;;;;4930107;29;20102;-71
2023/02/12 11:34:28;;;;;;;14.98;6.25;;;9.80;99.90;;;;;;4898881;28;20076;-71
2023/02/12 11:37:26;;;;;;;21.00;7.15;;;10.00;99.90;;;;;;4950275;29;20055;-72
2023/02/12 11:44:25;;;;;;;32.80;12.23;;;10.30;99.90;;;;;;4895811;29;20051;-72
2023/02/12 11:48:08;;;;;;;20.10;6.53;;;10.40;99.90;;;;;;4938852;29;20044;-72
2023/02/12 11:51:09;;;;;;;19.50;6.72;;;10.40;99.90;;;;;;4854823;29;20082;-71
2023/02/12 11:57:50;;;;;;;15.48;5.90;;;10.10;99.90;;;;;;4855094;29;20533;-72
2023/02/12 12:00:58;;;;;;;11.75;5.13;;;10.10;99.90;;;;;;4826772;29;20046;-72
2023/02/12 12:04:04;;;;;;;15.88;6.85;;;10.10;99.90;;;;;;4822562;29;20121;-71
2023/02/12 12:07:15;;;;;;;11.40;3.85;;;10.10;99.90;;;;;;4855909;29;20041;-71
2023/02/12 12:10:21;;;;;;;13.95;4.10;;;9.80;99.90;;;;;;4867926;29;20049;-71
2023/02/12 12:13:21;;;;;;;10.25;3.47;;;10.00;99.90;;;;;;4843008;29;20471;-72
2023/02/12 12:20:05;;;;;;;9.13;3.75;;;10.30;99.90;;;;;;4894774;29;20085;-71
2023/02/12 12:22:51;;;;;;;12.05;3.50;;;10.20;99.90;;;;;;4896405;29;20067;-71
2023/02/12 12:26:29;;;;;;;7.03;2.70;;;10.40;99.90;;;;;;4895314;29;20040;-71
2023/02/12 12:29:42;;;;;;;8.15;3.88;;;10.10;99.90;;;;;;4889897;29;20051;-72
2023/02/12 12:32:47;;;;;;;12.60;4.07;;;10.40;99.90;;;;;;4880427;29;20108;-72
2023/02/12 12:36:17;;;;;;;5.50;2.85;;;10.50;99.90;;;;;;4975528;28;20034;-73
2023/02/12 12:43:35;;;;;;;9.07;2.95;;;10.20;99.90;;;;;;4933544;29;20048;-72
2023/02/12 12:47:00;;;;;;;5.53;2.97;;;10.40;99.90;;;;;;4881350;29;20049;-72
2023/02/12 12:50:09;;;;;;;15.43;4.10;;;10.20;99.90;;;;;;4840182;29;20530;-72
2023/02/12 12:53:02;;;;;;;7.32;3.33;;;10.40;99.90;;;;;;4833797;29;20049;-71
2023/02/12 12:56:29;;;;;;;12.27;4.15;;;10.60;99.90;;;;;;4839066;29;20133;-64
2023/02/12 13:00:11;;;;;;;7.32;2.70;;;10.90;99.90;;;;;;4818493;29;20125;-65
2023/02/12 13:03:21;;;;;;;;;;;10.60;99.90;;;;;;4821037;29;20526;-76
2023/02/12 13:06:21;;;;;;;8.48;3.40;;;10.80;99.90;;;;;;4821499;29;20069;-76
2023/02/12 13:09:45;;;;;;;11.55;3.45;;;10.80;99.90;;;;;;4816932;29;20110;-71
2023/02/12 13:12:33;;;;;;;11.23;2.60;;;10.70;99.90;;;;;;4821841;29;20038;-71
2023/02/12 13:20:09;;;;;;;5.25;2.20;;;10.70;99.90;;;;;;4786261;29;20565;-78
2023/02/12 13:22:55;;;;;;;7.25;2.10;;;10.80;99.90;;;;;;4784150;29;20602;-81
2023/02/12 13:26:11;;;;;;;11.25;4.80;;;10.70;99.90;;;;;;4784354;29;20547;-75
2023/02/12 13:29:04;;;;;;;4.28;2.17;;;11.70;99.90;;;;;;4799869;29;20047;-74
2023/02/12 13:32:02;;;;;;;6.72;2.30;;;13.60;99.90;;;;;;4804719;29;20034;-74
2023/02/12 13:34:45;;;;;;;4.70;1.85;;;14.20;99.90;;;;;;4818270;29;20455;-74
2023/02/12 13:38:02;;;;;;;5.68;2.40;;;13.90;99.90;;;;;;4860854;29;20052;-75
2023/02/12 13:41:06;;;;;;;2.95;1.70;;;15.90;99.90;;;;;;4877218;29;20072;-74
2023/02/12 13:48:31;;;;;;;4.43;1.60;;;15.10;99.90;;;;;;4856207;29;20089;-75
2023/02/12 13:52:03;;;;;;;;;;;;;;;;;;;;;
2023/02/12 13:55:16;;;;;;;5.43;1.95;;;15.70;99.70;;;;;;4873453;29;20052;-77
2023/02/12 13:58:40;;;;;;;3.17;1.50;;;15.30;99.90;;;;;;4870706;29;20048;-77
2023/02/12 14:01:38;;;;;;;3.88;1.60;;;14.70;99.90;;;;;;4869939;29;20037;-78
2023/02/12 14:05:22;;;;;;;2.92;1.35;;;14.90;99.90;;;;;;4874076;29;20048;-79
2023/02/12 14:08:06;;;;;;;2.95;1.60;;;16.40;99.10;;;;;;4781010;29;20499;-78
2023/02/12 14:11:38;;;;;;;4.70;2.03;;;16.50;98.90;;;;;;4767597;30;20071;-77
2023/02/12 14:18:41;;;;;;;9.48;3.92;;;15.80;99.90;;;;;;4776904;29;20555;-77
2023/02/12 14:22:27;;;;;;;6.88;3.15;;;15.90;99.90;;;;;;4775714;29;20055;-77
2023/02/12 14:26:06;;;;;;;4.53;1.80;;;15.90;99.70;;;;;;4763484;30;20060;-77
2023/02/12 14:33:06;;;;;;;6.47;2.75;;;17.00;97.40;;;;;;4785379;29;20082;-77
2023/02/12 14:36:15;;;;;;;3.80;1.73;;;15.90;98.60;;;;;;4789999;29;20057;-77
2023/02/12 14:39:19;;;;;;;4.85;2.17;;;14.90;99.90;;;;;;4776175;29;20465;-77
2023/02/12 14:41:53;;;;;;;5.13;2.25;;;14.90;99.90;;;;;;4807657;29;20054;-75
2023/02/12 14:45:02;;;;;;;5.05;2.53;;;15.20;99.20;;;;;;4829509;29;20577;-77
2023/02/12 14:47:31;;;;;;;4.95;2.05;;;15.70;99.50;;;;;;4854418;29;20642;-74
2023/02/12 14:50:21;;;;;;;6.88;3.25;;;15.10;99.10;;;;;;4855734;29;20089;-75
2023/02/12 14:53:47;;;;;;;6.85;2.83;;;15.80;99.40;;;;;;4855713;29;20062;-74
2023/02/12 14:56:24;;;;;;;3.72;1.85;;;17.00;98.10;;;;;;4786886;29;20048;-74
2023/02/12 14:59:20;;;;;;;4.97;2.13;;;17.30;96.30;;;;;;4797981;29;20126;-75
2023/02/12 15:02:00;;;;;;;6.20;2.83;;;16.00;97.70;;;;;;4784189;29;20039;-75
2023/02/12 15:04:37;;;;;;;5.53;2.28;;;15.00;99.40;;;;;;4783908;29;20086;-75
2023/02/12 15:11:47;;;;;;;5.60;2.45;;;14.80;99.90;;;;;;4777881;30;20062;-74
2023/02/12 15:18:39;;;;;;;7.07;2.00;;;16.30;99.00;;;;;;4741145;30;20066;-76
2023/02/12 15:24:38;;;;;;;7.07;2.97;;;14.80;99.90;;;;;;4750822;30;20036;-76
2023/02/12 15:27:47;;;;;;;7.72;2.53;;;16.40;99.30;;;;;;4779561;29;20053;-76
2023/02/12 15:30:26;;;;;;;5.03;2.42;;;16.40;97.70;;;;;;4816217;29;20592;-74
2023/02/12 15:32:59;;;;;;;9.68;3.05;;;17.60;96.50;;;;;;4817910;29;20100;-76
2023/02/12 15:35:31;;;;;;;4.72;2.88;;;18.30;94.70;;;;;;4818335;29;20046;-76
2023/02/12 15:37:59;;;;;;;5.03;2.70;;;16.60;97.40;;;;;;4818365;29;20061;-67
2023/02/12 15:40:30;;;;;;;7.88;2.85;;;17.50;96.20;;;;;;4822080;29;20038;-67
2023/02/12 15:43:18;;;;;;;8.70;3.58;;;17.20;95.90;;;;;;4817775;29;20065;-67
2023/02/12 15:45:56;;;;;;;10.40;4.80;;;17.40;96.30;;;;;;4824022;29;20080;-67
2023/02/12 15:49:31;;;;;;;13.25;5.25;;;16.90;97.20;;;;;;4886259;29;20099;-67
2023/02/12 15:52:11;;;;;;;12.65;5.30;;;17.20;96.60;;;;;;4894607;29;20083;-67
2023/02/12 15:55:57;;;;;;;16.88;4.78;;;17.10;97.00;;;;;;4889495;29;20044;-67
2023/02/12 15:58:56;;;;;;;10.27;4.43;;;16.70;98.20;;;;;;4871881;29;20052;-67
2023/02/12 16:01:26;;;;;;;11.93;5.35;;;16.40;98.70;;;;;;4865643;29;20033;-67
2023/02/12 16:04:36;;;;;;;13.10;5.37;;;16.10;98.80;;;;;;4857461;29;20526;-67
2023/02/12 16:07:18;;;;;;;12.75;5.03;;;16.30;99.00;;;;;;4839307;29;20041;-67
2023/02/12 16:10:05;;;;;;;16.63;5.75;;;16.10;99.40;;;;;;4850663;29;20583;-68
2023/02/12 16:12:36;;;;;;;13.38;4.97;;;16.00;99.90;;;;;;4835156;29;20114;-68
2023/02/12 16:15:47;;;;;;;15.70;5.07;;;15.50;99.90;;;;;;4839259;29;20049;-68
2023/02/12 16:18:27;;;;;;;13.30;5.63;;;14.80;99.90;;;;;;4854675;29;20053;-67
2023/02/12 16:21:51;;;;;;;16.20;6.07;;;14.70;99.90;;;;;;4860644;29;20064;-67
2023/02/12 16:24:38;;;;;;;15.35;6.72;;;14.30;99.90;;;;;;4878910;29;20045;-66
2023/02/12 16:31:20;;;;;;;14.63;5.30;;;13.50;99.90;;;;;;4863026;29;20148;-66
2023/02/12 16:34:38;;;;;;;19.00;5.38;;;12.90;99.90;;;;;;4889188;29;20037;-68
2023/02/12 16:38:50;;;;;;;16.08;5.57;;;12.50;99.90;;;;;;4855381;29;20052;-67
2023/02/12 16:41:51;;;;;;;;;;;12.10;99.90;;;;;;4851546;29;20459;-67
2023/02/12 16:44:34;;;;;;;18.63;5.88;;;11.70;99.90;;;;;;4841679;29;19916;-66
2023/02/12 16:47:12;;;;;;;16.85;6.55;;;11.40;99.90;;;;;;4844417;29;20041;-72
2023/02/12 16:50:26;;;;;;;16.95;6.53;;;11.20;99.90;;;;;;4856454;29;20038;-72
2023/02/12 16:54:03;;;;;;;18.13;6.13;;;10.90;99.90;;;;;;4855198;29;20110;-72
2023/02/12 16:57:08;;;;;;;16.00;6.30;;;10.70;99.90;;;;;;4845779;29;20113;-71
2023/02/12 16:59:49;;;;;;;13.45;6.00;;;10.40;99.90;;;;;;4850565;29;20049;-71